createdAt,value
2023-04-05T00:01:25.730Z,4.93
2023-04-05T00:03:54.767Z,4.82
2023-04-05T00:06:26.738Z,4.79
2023-04-05T00:08:55.735Z,4.68
2023-04-05T00:11:23.276Z,4.59
2023-04-05T00:13:50.733Z,4.81
2023-04-05T00:16:18.672Z,4.82
2023-04-05T00:18:50.057Z,4.52
2023-04-05T00:21:23.757Z,4.49
2023-04-05T00:23:52.529Z,4.48
2023-04-05T00:26:22.905Z,4.70
2023-04-05T00:28:50.851Z,4.64
2023-04-05T00:31:21.598Z,4.64
2023-04-05T00:33:48.599Z,4.57
2023-04-05T00:36:20.768Z,4.52
2023-04-05T00:38:49.936Z,4.55
2023-04-05T00:41:17.002Z,4.53
2023-04-05T00:43:44.500Z,4.69
2023-04-05T00:46:11.587Z,4.61
2023-04-05T00:48:39.480Z,4.58
2023-04-05T00:51:09.760Z,4.40
2023-04-05T00:53:38.035Z,4.72
2023-04-05T00:56:05.432Z,4.78
2023-04-05T00:58:34.309Z,4.60
2023-04-05T01:01:14.293Z,4.47
2023-04-05T01:03:54.319Z,4.64
2023-04-05T01:06:46.350Z,4.60
2023-04-05T01:09:40.443Z,4.84
2023-04-05T01:12:12.441Z,4.38
2023-04-05T01:14:53.579Z,4.35
2023-04-05T01:17:24.423Z,4.59
2023-04-05T01:19:59.523Z,4.21
2023-04-05T01:22:54.602Z,4.30
2023-04-05T01:25:43.638Z,4.49
2023-04-05T01:28:36.030Z,4.52
2023-04-05T01:31:24.117Z,4.49
2023-04-05T01:34:02.364Z,4.37
2023-04-05T01:36:40.518Z,4.27
2023-04-05T01:39:12.088Z,4.66
2023-04-05T01:41:42.844Z,4.32
2023-04-05T01:44:09.772Z,3.98
2023-04-05T01:46:37.131Z,4.17
2023-04-05T01:49:06.096Z,4.34
2023-04-05T01:51:33.683Z,4.58
2023-04-05T02:05:16.581Z,4.27
2023-04-05T02:07:43.430Z,4.37
2023-04-05T02:10:13.324Z,4.47
2023-04-05T02:12:40.198Z,4.70
2023-04-05T02:15:07.842Z,4.96
2023-04-05T02:17:40.431Z,4.54
2023-04-05T02:20:08.910Z,4.61
2023-04-05T02:22:39.451Z,4.49
2023-04-05T02:26:39.328Z,4.38
2023-04-05T02:28:43.564Z,4.54
2023-04-05T02:31:15.884Z,4.64
2023-04-05T02:34:19.096Z,4.82
2023-04-05T02:36:47.975Z,4.65
2023-04-05T02:39:14.939Z,4.52
2023-04-05T02:41:48.673Z,4.60
2023-04-05T02:48:10.297Z,4.41
2023-04-05T02:50:38.425Z,4.49
2023-04-05T02:53:35.614Z,4.40
2023-04-05T02:56:08.739Z,4.39
2023-04-05T02:58:35.808Z,4.43
2023-04-05T03:01:07.818Z,4.05
2023-04-05T03:03:35.188Z,4.29
2023-04-05T03:06:11.087Z,4.21
2023-04-05T03:08:46.938Z,4.02
2023-04-05T03:11:14.749Z,4.07
2023-04-05T03:13:42.075Z,4.23
2023-04-05T03:16:09.104Z,4.21
2023-04-05T03:18:36.171Z,4.17
2023-04-05T03:21:04.657Z,4.31
2023-04-05T03:23:32.720Z,4.21
2023-04-05T03:26:04.127Z,4.30
2023-04-05T03:28:34.815Z,4.07
2023-04-05T03:31:01.789Z,3.72
2023-04-05T03:33:29.433Z,4.23
2023-04-05T03:58:56.582Z,3.86
2023-04-05T04:01:23.565Z,3.99
2023-04-05T04:03:53.482Z,3.88
2023-04-05T04:06:34.335Z,4.10
2023-04-05T04:09:01.192Z,3.96
2023-04-05T04:12:07.856Z,4.12
2023-04-05T04:18:26.918Z,3.87
2023-04-05T04:21:25.620Z,3.84
2023-04-05T04:23:53.470Z,4.18
2023-04-05T04:26:32.781Z,4.41
2023-04-05T04:29:00.067Z,4.11
2023-04-05T04:31:27.802Z,3.98
2023-04-05T04:33:56.743Z,4.07
2023-04-05T04:36:35.206Z,4.30
2023-04-05T04:39:08.521Z,4.10
2023-04-05T04:41:36.471Z,4.29
2023-04-05T04:44:03.450Z,4.10
2023-04-05T04:46:35.126Z,3.91
2023-04-05T04:49:06.380Z,3.94
2023-04-05T04:51:33.904Z,4.28
2023-04-05T04:54:02.721Z,4.25
2023-04-05T04:56:29.765Z,4.23
2023-04-05T04:59:00.508Z,4.32
2023-04-05T05:01:31.121Z,4.25
2023-04-05T05:04:04.888Z,4.19
2023-04-05T05:06:34.781Z,4.36
2023-04-05T05:09:01.837Z,4.44
2023-04-05T05:11:29.182Z,4.37
2023-04-05T05:13:56.134Z,4.23
2023-04-05T05:16:24.107Z,4.34
2023-04-05T05:18:52.061Z,4.40
2023-04-05T05:21:51.693Z,4.50
2023-04-05T05:24:27.967Z,4.39
2023-04-05T05:26:54.891Z,4.31
2023-04-05T05:29:34.993Z,4.42
2023-04-05T05:32:26.594Z,4.58
2023-04-05T05:35:01.342Z,4.52
2023-04-05T05:41:07.690Z,4.28
2023-04-05T05:43:37.913Z,4.02
2023-04-05T05:46:07.964Z,4.24
2023-04-05T05:48:42.920Z,4.24
2023-04-05T05:51:44.324Z,4.54
2023-04-05T05:54:12.235Z,4.41
2023-04-05T05:56:41.050Z,4.46
2023-04-05T05:59:07.957Z,4.50
2023-04-05T06:01:40.909Z,4.35
2023-04-05T06:04:09.217Z,4.35
2023-04-05T06:06:57.186Z,4.61
2023-04-05T06:09:27.599Z,4.91
2023-04-05T06:11:56.869Z,4.63
2023-04-05T06:14:48.265Z,4.85
2023-04-05T06:17:45.318Z,4.84
2023-04-05T06:20:13.669Z,4.70
2023-04-05T06:26:41.163Z,4.87
2023-04-05T06:30:30.894Z,4.90
2023-04-05T06:33:07.369Z,4.96
2023-04-05T06:35:40.049Z,5.01
2023-04-05T06:38:07.476Z,4.94
2023-04-05T06:40:38.298Z,5.39
2023-04-05T06:43:10.001Z,5.09
2023-04-05T06:45:37.621Z,5.13
2023-04-05T06:51:50.897Z,5.40
2023-04-05T07:06:14.863Z,5.60
2023-04-05T07:12:14.675Z,5.89
2023-04-05T07:14:42.586Z,5.63
2023-04-05T07:17:11.330Z,5.96
2023-04-05T07:19:38.533Z,5.80
2023-04-05T07:22:08.195Z,5.76
2023-04-05T07:24:35.198Z,5.64
2023-04-05T07:27:38.161Z,6.07
2023-04-05T07:30:07.575Z,6.00
2023-04-05T07:32:37.726Z,6.29
2023-04-05T07:40:29.436Z,5.64
2023-04-05T07:45:56.125Z,6.09
2023-04-05T07:48:48.657Z,5.91
2023-04-05T07:51:19.656Z,5.73
2023-04-05T07:54:46.641Z,5.93
2023-04-05T07:57:20.525Z,6.01
2023-04-05T08:03:43.216Z,6.15
2023-04-05T08:06:24.391Z,6.05
2023-04-05T08:09:58.307Z,6.19
2023-04-05T08:13:18.834Z,6.25
2023-04-05T08:18:44.286Z,6.11
2023-04-05T08:37:17.219Z,6.88
2023-04-05T08:40:17.599Z,6.77
2023-04-05T08:57:49.091Z,7.11
2023-04-05T09:00:21.385Z,7.15
2023-04-05T09:02:54.358Z,7.11
2023-04-05T09:05:51.657Z,7.22
2023-04-05T09:08:19.836Z,7.77
2023-04-05T09:10:56.198Z,7.63
2023-04-05T09:33:29.104Z,7.54
2023-04-05T09:47:49.819Z,7.85
2023-04-05T09:50:17.022Z,7.62
2023-04-05T09:53:08.089Z,7.58
2023-04-05T09:56:18.362Z,7.78
2023-04-05T10:02:40.125Z,8.21
2023-04-05T10:12:29.782Z,8.43
2023-04-05T10:15:03.807Z,8.53
2023-04-05T10:20:50.901Z,8.69
2023-04-05T10:32:16.996Z,8.63
2023-04-05T10:35:14.510Z,8.95
2023-04-05T10:40:51.237Z,9.21
2023-04-05T10:46:22.398Z,9.25
2023-04-05T10:49:43.076Z,9.36
2023-04-05T10:52:10.932Z,9.18
2023-04-05T10:54:38.857Z,8.82
2023-04-05T10:57:10.431Z,9.03
2023-04-05T11:00:03.826Z,9.18
2023-04-05T11:02:31.542Z,9.30
2023-04-05T11:05:05.324Z,9.59
2023-04-05T11:07:45.694Z,9.12
2023-04-05T11:10:21.875Z,8.36
2023-04-05T11:12:58.331Z,9.50
2023-04-05T11:16:13.531Z,9.92
2023-04-05T11:18:48.217Z,9.33
2023-04-05T11:24:02.888Z,8.89
2023-04-05T11:27:24.024Z,9.49
2023-04-05T11:30:37.361Z,9.39
2023-04-05T11:33:08.774Z,9.64
2023-04-05T11:40:02.414Z,10.06
2023-04-05T11:42:32.715Z,10.25
2023-04-05T11:45:00.662Z,10.51
2023-04-05T11:53:12.843Z,10.83
2023-04-05T11:54:57.746Z,10.20
2023-04-05T12:01:13.898Z,9.95
2023-04-05T12:07:18.828Z,9.92
2023-04-05T12:07:20.461Z,9.42
2023-04-05T12:13:12.671Z,10.04
2023-04-05T12:19:46.708Z,9.82
2023-04-05T12:22:14.109Z,9.93
2023-04-05T12:24:53.923Z,9.92
2023-04-05T12:27:32.836Z,9.60
2023-04-05T12:30:36.583Z,9.78
2023-04-05T12:36:08.650Z,9.60
2023-04-05T12:39:25.728Z,9.84
2023-04-05T12:42:20.225Z,9.53
2023-04-05T12:45:07.503Z,9.51
2023-04-05T12:50:28.932Z,9.47
2023-04-05T12:56:22.260Z,9.64
2023-04-05T12:58:52.426Z,10.06
2023-04-05T13:01:57.892Z,10.18
2023-04-05T13:07:11.811Z,9.85
2023-04-05T13:09:49.178Z,9.70
2023-04-05T13:51:21.392Z,9.55
2023-04-05T14:19:47.376Z,8.66
2023-04-05T14:25:36.398Z,8.47
2023-04-05T14:28:07.281Z,8.25
2023-04-05T14:31:02.804Z,8.42
2023-04-05T14:36:21.265Z,8.34
2023-04-05T14:38:48.238Z,8.55
2023-04-05T14:41:15.277Z,8.63
2023-04-05T14:43:42.900Z,8.71
2023-04-05T14:49:06.745Z,8.40
2023-04-05T15:09:33.707Z,8.34
2023-04-05T15:12:08.898Z,8.38
2023-04-05T15:14:39.432Z,8.32
2023-04-05T15:17:06.577Z,8.28
2023-04-05T15:19:36.789Z,8.23
2023-04-05T15:22:04.572Z,8.21
2023-04-05T15:24:34.192Z,8.22
2023-04-05T15:27:04.248Z,8.15
2023-04-05T15:29:35.241Z,8.26
2023-04-05T15:32:03.414Z,8.42
2023-04-05T15:34:33.897Z,8.25
2023-04-05T15:37:35.456Z,7.88
2023-04-05T15:40:08.801Z,8.11
2023-04-05T15:42:37.609Z,8.00
2023-04-05T15:45:05.027Z,8.21
2023-04-05T15:47:32.043Z,8.11
2023-04-05T15:50:01.585Z,8.04
2023-04-05T15:52:28.770Z,8.22
2023-04-05T15:56:22.946Z,8.10
2023-04-05T15:58:40.289Z,7.96
2023-04-05T16:01:07.710Z,7.75
2023-04-05T16:03:37.969Z,8.02
2023-04-05T16:06:07.609Z,8.03
2023-04-05T16:08:34.948Z,7.96
2023-04-05T16:11:08.676Z,7.66
2023-04-05T16:33:26.719Z,7.45
2023-04-05T16:36:11.576Z,7.57
2023-04-05T16:41:23.893Z,7.35
2023-04-05T16:51:55.257Z,7.11
2023-04-05T17:08:58.591Z,6.97
2023-04-05T17:11:43.536Z,6.81
2023-04-05T17:18:19.593Z,6.93
2023-04-05T17:21:23.306Z,6.78
2023-04-05T17:24:45.158Z,6.85
2023-04-05T17:35:27.640Z,6.60
2023-04-05T17:38:08.132Z,6.52
2023-04-05T17:41:15.273Z,6.45
2023-04-05T17:54:32.507Z,6.13
2023-04-05T17:56:59.653Z,6.42
2023-04-05T17:59:26.692Z,6.29
2023-04-05T18:01:56.413Z,6.19
2023-04-05T18:04:29.982Z,6.46
2023-04-05T18:06:57.297Z,6.48
2023-04-05T18:09:24.442Z,6.35
2023-04-05T18:11:58.159Z,6.52
2023-04-05T18:14:26.049Z,6.55
2023-04-05T18:17:22.780Z,6.49
2023-04-05T18:20:19.571Z,6.65
2023-04-05T18:23:22.791Z,6.60
2023-04-05T18:26:10.835Z,6.46
2023-04-05T18:28:37.925Z,6.28
2023-04-05T18:31:07.222Z,6.36
2023-04-05T18:33:42.936Z,6.53
2023-04-05T18:36:13.261Z,6.48
2023-04-05T18:39:00.998Z,6.39
2023-04-05T18:41:33.507Z,6.60
2023-04-05T18:44:10.388Z,6.49
2023-04-05T18:46:38.815Z,6.47
2023-04-05T18:49:06.493Z,6.41
2023-04-05T18:51:34.203Z,6.36
2023-04-05T18:54:01.342Z,6.45
2023-04-05T18:56:33.451Z,6.46
2023-04-05T18:59:00.501Z,6.47
2023-04-05T19:01:27.711Z,6.22
2023-04-05T19:03:54.781Z,6.06
2023-04-05T19:06:22.157Z,6.22
2023-04-05T19:08:49.357Z,6.29
2023-04-05T19:11:19.333Z,6.08
2023-04-05T19:13:46.916Z,5.49
2023-04-05T19:16:13.916Z,5.86
2023-04-05T19:18:40.925Z,5.72
2023-04-05T19:21:08.942Z,5.81
2023-04-05T19:23:36.882Z,5.47
2023-04-05T19:26:03.746Z,5.45
2023-04-05T19:28:30.794Z,5.53
2023-04-05T19:31:02.511Z,5.61
2023-04-05T19:33:31.912Z,5.36
2023-04-05T19:36:02.445Z,5.57
2023-04-05T19:38:29.946Z,5.44
2023-04-05T19:40:57.095Z,5.37
2023-04-05T19:43:26.752Z,5.48
2023-04-05T19:45:58.712Z,5.54
2023-04-05T19:48:40.324Z,5.32
2023-04-05T19:51:11.992Z,5.39
2023-04-05T19:53:43.033Z,5.34
2023-04-05T19:56:14.537Z,5.39
2023-04-05T19:58:42.656Z,5.40
2023-04-05T20:01:09.920Z,5.54
2023-04-05T20:03:43.092Z,5.79
2023-04-05T20:06:12.437Z,5.38
2023-04-05T20:08:45.225Z,5.59
2023-04-05T20:11:17.009Z,5.37
2023-04-05T20:13:52.372Z,5.30
2023-04-05T20:16:26.565Z,5.45
2023-04-05T20:18:54.798Z,5.16
2023-04-05T20:21:21.621Z,4.91
2023-04-05T20:23:48.568Z,5.04
2023-04-05T20:26:16.944Z,4.91
2023-04-05T20:29:04.361Z,5.27
2023-04-05T20:31:33.981Z,5.36
2023-04-05T20:34:14.481Z,5.08
2023-04-05T20:36:52.723Z,4.84
2023-04-05T20:39:19.836Z,5.19
2023-04-05T20:41:47.277Z,4.93
2023-04-05T20:44:14.640Z,5.21
2023-04-05T20:46:41.879Z,4.54
2023-04-05T20:49:10.677Z,5.01
2023-04-05T20:51:39.891Z,4.94
2023-04-05T20:54:08.145Z,4.94
2023-04-05T20:56:35.117Z,4.95
2023-04-05T20:59:02.390Z,4.33
2023-04-05T21:01:29.546Z,4.72
2023-04-05T21:03:57.154Z,4.49
2023-04-05T21:06:24.128Z,4.68
2023-04-05T21:08:51.096Z,5.02
2023-04-05T21:11:18.095Z,4.75
2023-04-05T21:13:45.348Z,4.94
2023-04-05T21:16:12.325Z,4.78
2023-04-05T21:18:39.338Z,4.84
2023-04-05T21:21:06.613Z,4.78
2023-04-05T21:23:34.485Z,4.78
2023-04-05T21:26:01.955Z,4.93
2023-04-05T21:28:29.746Z,5.11
2023-04-05T21:30:56.793Z,5.19
2023-04-05T21:33:23.968Z,5.11
2023-04-05T21:35:51.744Z,5.14
2023-04-05T21:38:18.868Z,4.56
2023-04-05T21:40:45.962Z,4.88
2023-04-05T21:43:13.964Z,4.93
2023-04-05T21:45:41.129Z,4.80
2023-04-05T21:48:08.519Z,4.96
2023-04-05T21:50:36.309Z,5.30
2023-04-05T21:53:03.251Z,5.28
2023-04-05T21:55:30.292Z,4.85
2023-04-05T21:57:57.455Z,4.90
2023-04-05T22:00:24.365Z,4.94
2023-04-05T22:02:54.093Z,4.78
2023-04-05T22:05:36.220Z,4.70
2023-04-05T22:08:06.005Z,4.89
2023-04-05T22:10:33.783Z,4.68
2023-04-05T22:13:00.626Z,4.68
2023-04-05T22:15:27.530Z,4.52
2023-04-05T22:17:55.054Z,4.54
2023-04-05T22:20:22.202Z,4.62
2023-04-05T22:22:49.201Z,4.67
2023-04-05T22:25:16.898Z,4.46
2023-04-05T22:27:43.712Z,4.45
2023-04-05T22:30:13.083Z,4.86
2023-04-05T22:32:40.555Z,4.55
2023-04-05T22:35:07.820Z,4.63
2023-04-05T22:37:36.709Z,4.81
2023-04-05T22:40:05.016Z,4.77
2023-04-05T22:42:32.301Z,4.82
2023-04-05T22:45:02.252Z,4.76
2023-04-05T22:47:29.650Z,4.54
2023-04-05T22:49:56.646Z,4.38
2023-04-05T22:52:23.608Z,4.50
2023-04-05T22:54:53.593Z,4.56
2023-04-05T22:57:20.726Z,4.02
2023-04-05T22:59:47.578Z,4.40
2023-04-05T23:02:14.942Z,4.59
2023-04-05T23:04:41.840Z,4.70
2023-04-05T23:07:08.660Z,3.96
2023-04-05T23:09:36.374Z,4.23
2023-04-05T23:12:03.400Z,4.59
2023-04-05T23:14:30.199Z,4.53
2023-04-05T23:16:57.527Z,4.71
2023-04-05T23:19:24.284Z,4.52
2023-04-05T23:21:51.681Z,4.49
2023-04-05T23:24:19.090Z,4.40
2023-04-05T23:26:46.222Z,4.40
2023-04-05T23:29:13.169Z,4.51
2023-04-05T23:31:42.904Z,4.32
2023-04-05T23:34:09.852Z,4.65
2023-04-05T23:36:37.201Z,4.48
2023-04-05T23:39:04.588Z,4.32
2023-04-05T23:41:31.734Z,4.35
2023-04-05T23:43:58.593Z,4.44
2023-04-05T23:46:26.655Z,4.63
2023-04-05T23:48:53.590Z,4.54
2023-04-05T23:51:21.150Z,4.63
2023-04-05T23:53:48.024Z,4.50
2023-04-05T23:56:15.378Z,4.45
2023-04-05T23:58:42.498Z,4.62
